sensor_id;sensor_type;location;lat;lon;timestamp;temperature;humidity
69944;DHT22;57257;48.408;-4.498;2023-08-24T00:00:29;21.55;66.50
69944;DHT22;57257;48.408;-4.498;2023-08-24T00:02:57;21.60;66.73
69944;DHT22;57257;48.408;-4.498;2023-08-24T00:05:23;21.55;66.61
69944;DHT22;57257;48.408;-4.498;2023-08-24T00:07:49;21.55;66.78
69944;DHT22;57257;48.408;-4.498;2023-08-24T00:10:15;21.55;66.69
69944;DHT22;57257;48.408;-4.498;2023-08-24T00:12:40;21.58;66.79
69944;DHT22;57257;48.408;-4.498;2023-08-24T00:15:09;21.55;66.79
69944;DHT22;57257;48.408;-4.498;2023-08-24T00:17:37;21.57;66.80
69944;DHT22;57257;48.408;-4.498;2023-08-24T00:20:04;21.58;66.92
69944;DHT22;57257;48.408;-4.498;2023-08-24T00:22:30;21.55;66.93
69944;DHT22;57257;48.408;-4.498;2023-08-24T00:24:55;21.60;67.02
69944;DHT22;57257;48.408;-4.498;2023-08-24T00:27:21;21.58;66.96
69944;DHT22;57257;48.408;-4.498;2023-08-24T00:29:46;21.60;66.94
69944;DHT22;57257;48.408;-4.498;2023-08-24T00:32:12;21.60;66.69
69944;DHT22;57257;48.408;-4.498;2023-08-24T00:34:37;21.58;66.96
69944;DHT22;57257;48.408;-4.498;2023-08-24T00:37:02;21.55;66.97
69944;DHT22;57257;48.408;-4.498;2023-08-24T00:39:28;21.55;67.01
69944;DHT22;57257;48.408;-4.498;2023-08-24T00:41:54;21.54;67.11
69944;DHT22;57257;48.408;-4.498;2023-08-24T00:44:20;21.55;66.92
69944;DHT22;57257;48.408;-4.498;2023-08-24T00:46:45;21.54;67.26
69944;DHT22;57257;48.408;-4.498;2023-08-24T00:49:10;21.55;67.41
69944;DHT22;57257;48.408;-4.498;2023-08-24T00:51:37;21.53;67.41
69944;DHT22;57257;48.408;-4.498;2023-08-24T00:54:02;21.43;67.69
69944;DHT22;57257;48.408;-4.498;2023-08-24T00:56:28;21.41;67.94
69944;DHT22;57257;48.408;-4.498;2023-08-24T00:58:56;21.36;67.99
69944;DHT22;57257;48.408;-4.498;2023-08-24T01:01:22;21.36;68.02
69944;DHT22;57257;48.408;-4.498;2023-08-24T01:03:47;21.36;68.21
69944;DHT22;57257;48.408;-4.498;2023-08-24T01:06:13;21.34;68.46
69944;DHT22;57257;48.408;-4.498;2023-08-24T01:08:38;21.34;68.50
69944;DHT22;57257;48.408;-4.498;2023-08-24T01:14:23;21.34;68.76
69944;DHT22;57257;48.408;-4.498;2023-08-24T01:16:58;21.27;68.84
69944;DHT22;57257;48.408;-4.498;2023-08-24T01:19:43;21.26;68.95
69944;DHT22;57257;48.408;-4.498;2023-08-24T01:25:05;21.33;68.83
69944;DHT22;57257;48.408;-4.498;2023-08-24T01:27:34;21.31;69.04
69944;DHT22;57257;48.408;-4.498;2023-08-24T01:30:02;21.31;69.11
69944;DHT22;57257;48.408;-4.498;2023-08-24T01:32:32;21.34;69.45
69944;DHT22;57257;48.408;-4.498;2023-08-24T01:34:59;21.33;69.39
69944;DHT22;57257;48.408;-4.498;2023-08-24T01:37:25;21.33;69.36
69944;DHT22;57257;48.408;-4.498;2023-08-24T01:40:04;21.34;68.94
69944;DHT22;57257;48.408;-4.498;2023-08-24T01:42:43;21.34;69.26
69944;DHT22;57257;48.408;-4.498;2023-08-24T01:45:11;21.31;69.11
69944;DHT22;57257;48.408;-4.498;2023-08-24T01:47:39;21.24;69.31
69944;DHT22;57257;48.408;-4.498;2023-08-24T01:50:07;21.19;69.41
69944;DHT22;57257;48.408;-4.498;2023-08-24T01:52:34;21.14;69.92
69944;DHT22;57257;48.408;-4.498;2023-08-24T01:54:59;21.14;69.94
69944;DHT22;57257;48.408;-4.498;2023-08-24T01:57:25;21.17;70.20
69944;DHT22;57257;48.408;-4.498;2023-08-24T01:59:50;21.19;70.52
69944;DHT22;57257;48.408;-4.498;2023-08-24T02:02:16;21.17;70.24
69944;DHT22;57257;48.408;-4.498;2023-08-24T02:04:42;21.16;70.57
69944;DHT22;57257;48.408;-4.498;2023-08-24T02:07:07;21.14;70.36
69944;DHT22;57257;48.408;-4.498;2023-08-24T02:09:33;21.16;70.67
69944;DHT22;57257;48.408;-4.498;2023-08-24T02:11:59;21.17;70.92
69944;DHT22;57257;48.408;-4.498;2023-08-24T02:14:24;21.17;71.26
69944;DHT22;57257;48.408;-4.498;2023-08-24T02:16:49;21.22;71.56
69944;DHT22;57257;48.408;-4.498;2023-08-24T02:19:15;21.23;71.57
69944;DHT22;57257;48.408;-4.498;2023-08-24T02:21:40;21.24;71.54
69944;DHT22;57257;48.408;-4.498;2023-08-24T02:24:06;21.24;71.42
69944;DHT22;57257;48.408;-4.498;2023-08-24T02:26:32;21.26;71.13
69944;DHT22;57257;48.408;-4.498;2023-08-24T02:28:57;21.24;71.23
69944;DHT22;57257;48.408;-4.498;2023-08-24T02:31:23;21.24;71.53
69944;DHT22;57257;48.408;-4.498;2023-08-24T02:33:48;21.22;71.66
69944;DHT22;57257;48.408;-4.498;2023-08-24T02:36:14;21.26;71.55
69944;DHT22;57257;48.408;-4.498;2023-08-24T02:38:40;21.22;71.63
69944;DHT22;57257;48.408;-4.498;2023-08-24T02:41:07;21.20;71.83
69944;DHT22;57257;48.408;-4.498;2023-08-24T02:43:33;21.14;71.68
69944;DHT22;57257;48.408;-4.498;2023-08-24T02:46:03;21.14;71.70
69944;DHT22;57257;48.408;-4.498;2023-08-24T02:48:29;21.10;71.74
69944;DHT22;57257;48.408;-4.498;2023-08-24T02:50:57;21.10;71.67
69944;DHT22;57257;48.408;-4.498;2023-08-24T02:53:23;21.07;71.82
69944;DHT22;57257;48.408;-4.498;2023-08-24T02:55:48;21.07;72.04
69944;DHT22;57257;48.408;-4.498;2023-08-24T02:58:13;21.04;71.90
69944;DHT22;57257;48.408;-4.498;2023-08-24T03:00:39;21.03;72.11
69944;DHT22;57257;48.408;-4.498;2023-08-24T03:03:04;21.04;71.94
69944;DHT22;57257;48.408;-4.498;2023-08-24T03:08:55;21.02;72.30
69944;DHT22;57257;48.408;-4.498;2023-08-24T03:11:20;21.03;72.52
69944;DHT22;57257;48.408;-4.498;2023-08-24T03:13:45;21.03;72.37
69944;DHT22;57257;48.408;-4.498;2023-08-24T03:16:11;21.03;72.56
69944;DHT22;57257;48.408;-4.498;2023-08-24T03:18:36;21.00;72.68
69944;DHT22;57257;48.408;-4.498;2023-08-24T03:21:02;21.02;72.76
69944;DHT22;57257;48.408;-4.498;2023-08-24T03:23:27;21.00;72.74
69944;DHT22;57257;48.408;-4.498;2023-08-24T03:25:55;20.97;72.84
69944;DHT22;57257;48.408;-4.498;2023-08-24T03:28:21;20.96;73.01
69944;DHT22;57257;48.408;-4.498;2023-08-24T03:30:48;20.90;73.02
69944;DHT22;57257;48.408;-4.498;2023-08-24T03:33:14;20.92;73.29
69944;DHT22;57257;48.408;-4.498;2023-08-24T03:35:40;20.93;73.21
69944;DHT22;57257;48.408;-4.498;2023-08-24T03:38:05;20.95;73.66
69944;DHT22;57257;48.408;-4.498;2023-08-24T03:40:31;20.97;73.58
69944;DHT22;57257;48.408;-4.498;2023-08-24T03:42:57;20.99;73.55
69944;DHT22;57257;48.408;-4.498;2023-08-24T03:45:22;20.96;73.84
69944;DHT22;57257;48.408;-4.498;2023-08-24T03:47:48;20.95;74.00
69944;DHT22;57257;48.408;-4.498;2023-08-24T03:50:14;20.97;74.27
69944;DHT22;57257;48.408;-4.498;2023-08-24T03:52:39;20.97;74.27
69944;DHT22;57257;48.408;-4.498;2023-08-24T03:55:06;21.00;74.22
69944;DHT22;57257;48.408;-4.498;2023-08-24T03:57:31;21.03;74.42
69944;DHT22;57257;48.408;-4.498;2023-08-24T03:59:57;21.06;74.38
69944;DHT22;57257;48.408;-4.498;2023-08-24T04:02:23;21.07;74.45
69944;DHT22;57257;48.408;-4.498;2023-08-24T04:04:49;21.04;74.32
69944;DHT22;57257;48.408;-4.498;2023-08-24T04:07:14;21.02;74.03
69944;DHT22;57257;48.408;-4.498;2023-08-24T04:09:40;20.99;74.04
69944;DHT22;57257;48.408;-4.498;2023-08-24T04:12:05;20.96;73.99
69944;DHT22;57257;48.408;-4.498;2023-08-24T04:14:31;20.95;74.04
69944;DHT22;57257;48.408;-4.498;2023-08-24T04:16:56;20.90;73.98
69944;DHT22;57257;48.408;-4.498;2023-08-24T04:19:22;20.82;73.95
69944;DHT22;57257;48.408;-4.498;2023-08-24T04:21:47;20.82;74.11
69944;DHT22;57257;48.408;-4.498;2023-08-24T04:24:13;20.76;73.97
69944;DHT22;57257;48.408;-4.498;2023-08-24T04:26:38;20.73;73.99
69944;DHT22;57257;48.408;-4.498;2023-08-24T04:29:03;20.71;74.06
69944;DHT22;57257;48.408;-4.498;2023-08-24T04:31:29;20.71;73.93
69944;DHT22;57257;48.408;-4.498;2023-08-24T04:33:54;20.68;73.95
69944;DHT22;57257;48.408;-4.498;2023-08-24T04:36:20;20.65;74.12
69944;DHT22;57257;48.408;-4.498;2023-08-24T04:38:45;20.62;74.06
69944;DHT22;57257;48.408;-4.498;2023-08-24T04:41:11;20.59;74.20
69944;DHT22;57257;48.408;-4.498;2023-08-24T04:43:37;20.59;74.36
69944;DHT22;57257;48.408;-4.498;2023-08-24T04:46:03;20.56;74.34
69944;DHT22;57257;48.408;-4.498;2023-08-24T04:48:29;20.56;74.36
69944;DHT22;57257;48.408;-4.498;2023-08-24T04:51:00;20.56;74.69
69944;DHT22;57257;48.408;-4.498;2023-08-24T04:53:26;20.57;74.58
69944;DHT22;57257;48.408;-4.498;2023-08-24T04:55:51;20.55;74.79
69944;DHT22;57257;48.408;-4.498;2023-08-24T04:58:17;20.55;74.52
69944;DHT22;57257;48.408;-4.498;2023-08-24T05:00:43;20.53;74.57
69944;DHT22;57257;48.408;-4.498;2023-08-24T05:03:08;20.51;74.43
69944;DHT22;57257;48.408;-4.498;2023-08-24T05:05:34;20.51;74.56
69944;DHT22;57257;48.408;-4.498;2023-08-24T05:08:01;20.49;74.66
69944;DHT22;57257;48.408;-4.498;2023-08-24T05:10:30;20.49;74.74
69944;DHT22;57257;48.408;-4.498;2023-08-24T05:12:56;20.48;74.75
69944;DHT22;57257;48.408;-4.498;2023-08-24T05:15:22;20.46;74.76
69944;DHT22;57257;48.408;-4.498;2023-08-24T05:17:47;20.46;74.47
69944;DHT22;57257;48.408;-4.498;2023-08-24T05:20:13;20.45;74.65
69944;DHT22;57257;48.408;-4.498;2023-08-24T05:22:39;20.46;74.54
69944;DHT22;57257;48.408;-4.498;2023-08-24T05:25:04;20.45;74.88
69944;DHT22;57257;48.408;-4.498;2023-08-24T05:27:30;20.48;74.74
69944;DHT22;57257;48.408;-4.498;2023-08-24T05:29:56;20.43;74.83
69944;DHT22;57257;48.408;-4.498;2023-08-24T05:32:21;20.42;74.85
69944;DHT22;57257;48.408;-4.498;2023-08-24T05:34:47;20.45;74.90
69944;DHT22;57257;48.408;-4.498;2023-08-24T05:37:12;20.43;75.08
69944;DHT22;57257;48.408;-4.498;2023-08-24T05:39:38;20.48;74.91
69944;DHT22;57257;48.408;-4.498;2023-08-24T05:42:03;20.52;74.90
69944;DHT22;57257;48.408;-4.498;2023-08-24T05:44:29;20.53;74.98
69944;DHT22;57257;48.408;-4.498;2023-08-24T05:46:54;20.52;74.90
69944;DHT22;57257;48.408;-4.498;2023-08-24T05:49:20;20.53;74.84
69944;DHT22;57257;48.408;-4.498;2023-08-24T05:51:45;20.55;74.93
69944;DHT22;57257;48.408;-4.498;2023-08-24T05:54:11;20.59;74.86
69944;DHT22;57257;48.408;-4.498;2023-08-24T05:56:38;20.59;74.68
69944;DHT22;57257;48.408;-4.498;2023-08-24T05:59:04;20.61;74.70
69944;DHT22;57257;48.408;-4.498;2023-08-24T06:01:29;20.61;74.69
69944;DHT22;57257;48.408;-4.498;2023-08-24T06:03:55;20.61;74.74
69944;DHT22;57257;48.408;-4.498;2023-08-24T06:06:20;20.63;74.62
69944;DHT22;57257;48.408;-4.498;2023-08-24T06:08:46;20.63;74.55
69944;DHT22;57257;48.408;-4.498;2023-08-24T06:11:11;20.61;74.56
69944;DHT22;57257;48.408;-4.498;2023-08-24T06:13:36;20.61;74.65
69944;DHT22;57257;48.408;-4.498;2023-08-24T06:16:02;20.62;74.57
69944;DHT22;57257;48.408;-4.498;2023-08-24T06:18:28;20.63;74.27
69944;DHT22;57257;48.408;-4.498;2023-08-24T06:20:53;20.61;74.40
69944;DHT22;57257;48.408;-4.498;2023-08-24T06:23:19;20.59;74.39
69944;DHT22;57257;48.408;-4.498;2023-08-24T06:25:47;20.61;74.42
69944;DHT22;57257;48.408;-4.498;2023-08-24T06:28:12;20.59;74.29
69944;DHT22;57257;48.408;-4.498;2023-08-24T06:30:39;20.56;74.23
69944;DHT22;57257;48.408;-4.498;2023-08-24T06:33:05;20.59;74.04
69944;DHT22;57257;48.408;-4.498;2023-08-24T06:35:32;20.53;74.15
69944;DHT22;57257;48.408;-4.498;2023-08-24T06:37:58;20.51;74.17
69944;DHT22;57257;48.408;-4.498;2023-08-24T06:40:23;20.49;74.28
69944;DHT22;57257;48.408;-4.498;2023-08-24T06:42:49;20.56;74.24
69944;DHT22;57257;48.408;-4.498;2023-08-24T06:45:14;20.55;74.29
69944;DHT22;57257;48.408;-4.498;2023-08-24T06:47:40;20.59;74.09
69944;DHT22;57257;48.408;-4.498;2023-08-24T06:50:06;20.56;74.15
69944;DHT22;57257;48.408;-4.498;2023-08-24T06:52:31;20.53;73.90
69944;DHT22;57257;48.408;-4.498;2023-08-24T06:54:57;20.51;73.96
69944;DHT22;57257;48.408;-4.498;2023-08-24T06:57:23;20.49;74.14
69944;DHT22;57257;48.408;-4.498;2023-08-24T06:59:48;20.51;74.25
69944;DHT22;57257;48.408;-4.498;2023-08-24T07:02:13;20.53;74.22
69944;DHT22;57257;48.408;-4.498;2023-08-24T07:04:40;20.57;74.11
69944;DHT22;57257;48.408;-4.498;2023-08-24T07:07:08;20.65;74.01
69944;DHT22;57257;48.408;-4.498;2023-08-24T07:09:34;20.71;73.98
69944;DHT22;57257;48.408;-4.498;2023-08-24T07:12:01;20.76;73.96
69944;DHT22;57257;48.408;-4.498;2023-08-24T07:14:26;20.77;73.85
69944;DHT22;57257;48.408;-4.498;2023-08-24T07:16:52;20.85;73.78
69944;DHT22;57257;48.408;-4.498;2023-08-24T07:19:17;20.89;73.54
69944;DHT22;57257;48.408;-4.498;2023-08-24T07:21:43;20.92;73.43
69944;DHT22;57257;48.408;-4.498;2023-08-24T07:24:08;20.95;73.21
69944;DHT22;57257;48.408;-4.498;2023-08-24T07:26:34;20.95;73.05
69944;DHT22;57257;48.408;-4.498;2023-08-24T07:28:59;20.97;72.95
69944;DHT22;57257;48.408;-4.498;2023-08-24T07:31:25;20.99;72.96
69944;DHT22;57257;48.408;-4.498;2023-08-24T07:33:50;21.02;72.80
69944;DHT22;57257;48.408;-4.498;2023-08-24T07:36:15;21.03;72.72
69944;DHT22;57257;48.408;-4.498;2023-08-24T07:38:41;21.06;72.56
69944;DHT22;57257;48.408;-4.498;2023-08-24T07:41:06;21.08;72.56
69944;DHT22;57257;48.408;-4.498;2023-08-24T07:43:32;21.07;72.47
69944;DHT22;57257;48.408;-4.498;2023-08-24T07:45:58;21.07;72.42
69944;DHT22;57257;48.408;-4.498;2023-08-24T07:48:24;21.07;72.56
69944;DHT22;57257;48.408;-4.498;2023-08-24T07:50:50;21.13;72.67
69944;DHT22;57257;48.408;-4.498;2023-08-24T07:53:16;21.31;72.64
69944;DHT22;57257;48.408;-4.498;2023-08-24T07:55:42;21.55;72.36
69944;DHT22;57257;48.408;-4.498;2023-08-24T07:58:08;21.68;71.81
69944;DHT22;57257;48.408;-4.498;2023-08-24T08:00:33;21.73;71.53
69944;DHT22;57257;48.408;-4.498;2023-08-24T08:03:00;21.77;71.44
69944;DHT22;57257;48.408;-4.498;2023-08-24T08:05:25;21.78;71.33
69944;DHT22;57257;48.408;-4.498;2023-08-24T08:07:50;21.80;71.24
69944;DHT22;57257;48.408;-4.498;2023-08-24T08:10:16;21.90;71.25
69944;DHT22;57257;48.408;-4.498;2023-08-24T08:12:42;22.01;71.15
69944;DHT22;57257;48.408;-4.498;2023-08-24T08:15:08;22.09;71.11
69944;DHT22;57257;48.408;-4.498;2023-08-24T08:17:34;22.26;71.20
69944;DHT22;57257;48.408;-4.498;2023-08-24T08:19:59;22.51;70.93
69944;DHT22;57257;48.408;-4.498;2023-08-24T08:22:25;22.70;70.34
69944;DHT22;57257;48.408;-4.498;2023-08-24T08:24:51;22.73;69.86
69944;DHT22;57257;48.408;-4.498;2023-08-24T08:27:16;22.79;69.86
69944;DHT22;57257;48.408;-4.498;2023-08-24T08:29:42;22.85;69.81
69944;DHT22;57257;48.408;-4.498;2023-08-24T08:32:08;23.03;69.61
69944;DHT22;57257;48.408;-4.498;2023-08-24T08:34:33;23.23;69.37
69944;DHT22;57257;48.408;-4.498;2023-08-24T08:36:59;23.46;69.09
69944;DHT22;57257;48.408;-4.498;2023-08-24T08:39:24;23.61;68.73
69944;DHT22;57257;48.408;-4.498;2023-08-24T08:41:50;23.81;68.26
69944;DHT22;57257;48.408;-4.498;2023-08-24T08:44:15;24.00;68.11
69944;DHT22;57257;48.408;-4.498;2023-08-24T08:46:42;24.09;67.45
69944;DHT22;57257;48.408;-4.498;2023-08-24T08:49:08;24.25;67.22
69944;DHT22;57257;48.408;-4.498;2023-08-24T08:51:37;24.35;67.00
69944;DHT22;57257;48.408;-4.498;2023-08-24T08:54:06;24.51;66.79
69944;DHT22;57257;48.408;-4.498;2023-08-24T08:56:34;24.57;66.38
69944;DHT22;57257;48.408;-4.498;2023-08-24T08:59:01;24.55;66.03
69944;DHT22;57257;48.408;-4.498;2023-08-24T09:01:27;24.45;66.41
69944;DHT22;57257;48.408;-4.498;2023-08-24T09:03:54;24.39;66.04
69944;DHT22;57257;48.408;-4.498;2023-08-24T09:06:20;24.43;66.14
69944;DHT22;57257;48.408;-4.498;2023-08-24T09:08:47;24.52;65.80
69944;DHT22;57257;48.408;-4.498;2023-08-24T09:11:12;24.65;65.48
69944;DHT22;57257;48.408;-4.498;2023-08-24T09:13:39;24.77;65.02
69944;DHT22;57257;48.408;-4.498;2023-08-24T09:16:06;24.86;64.50
69944;DHT22;57257;48.408;-4.498;2023-08-24T09:18:39;24.97;64.12
69944;DHT22;57257;48.408;-4.498;2023-08-24T09:21:12;25.07;64.00
69944;DHT22;57257;48.408;-4.498;2023-08-24T09:23:45;25.13;63.70
69944;DHT22;57257;48.408;-4.498;2023-08-24T09:26:13;25.14;63.67
69944;DHT22;57257;48.408;-4.498;2023-08-24T09:28:42;25.20;63.39
69944;DHT22;57257;48.408;-4.498;2023-08-24T09:31:08;25.26;63.11
69944;DHT22;57257;48.408;-4.498;2023-08-24T09:33:33;25.28;62.54
69944;DHT22;57257;48.408;-4.498;2023-08-24T09:36:01;25.23;62.68
69944;DHT22;57257;48.408;-4.498;2023-08-24T09:38:28;25.26;62.55
69944;DHT22;57257;48.408;-4.498;2023-08-24T09:40:55;25.24;62.11
69944;DHT22;57257;48.408;-4.498;2023-08-24T09:43:22;25.17;62.23
69944;DHT22;57257;48.408;-4.498;2023-08-24T09:45:51;25.11;62.38
69944;DHT22;57257;48.408;-4.498;2023-08-24T09:48:17;25.07;61.93
69944;DHT22;57257;48.408;-4.498;2023-08-24T09:50:44;25.07;62.08
69944;DHT22;57257;48.408;-4.498;2023-08-24T09:53:20;25.14;62.14
69944;DHT22;57257;48.408;-4.498;2023-08-24T09:56:01;25.20;61.75
69944;DHT22;57257;48.408;-4.498;2023-08-24T09:58:28;25.11;61.17
69944;DHT22;57257;48.408;-4.498;2023-08-24T10:00:55;25.16;61.44
69944;DHT22;57257;48.408;-4.498;2023-08-24T10:03:24;25.07;61.69
69944;DHT22;57257;48.408;-4.498;2023-08-24T10:05:57;25.11;61.22
69944;DHT22;57257;48.408;-4.498;2023-08-24T10:08:27;25.16;60.80
69944;DHT22;57257;48.408;-4.498;2023-08-24T10:10:55;25.07;60.26
69944;DHT22;57257;48.408;-4.498;2023-08-24T10:13:31;25.03;60.56
69944;DHT22;57257;48.408;-4.498;2023-08-24T10:15:59;25.03;60.59
69944;DHT22;57257;48.408;-4.498;2023-08-24T10:18:26;25.02;60.20
69944;DHT22;57257;48.408;-4.498;2023-08-24T10:20:52;25.00;60.28
69944;DHT22;57257;48.408;-4.498;2023-08-24T10:23:19;25.10;60.38
69944;DHT22;57257;48.408;-4.498;2023-08-24T10:25:46;25.07;59.92
69944;DHT22;57257;48.408;-4.498;2023-08-24T10:28:13;25.11;59.88
69944;DHT22;57257;48.408;-4.498;2023-08-24T10:30:40;25.20;59.82
69944;DHT22;57257;48.408;-4.498;2023-08-24T10:33:09;25.23;59.36
69944;DHT22;57257;48.408;-4.498;2023-08-24T10:35:36;25.13;59.09
69944;DHT22;57257;48.408;-4.498;2023-08-24T10:38:03;24.96;59.20
69944;DHT22;57257;48.408;-4.498;2023-08-24T10:40:37;24.83;59.59
69944;DHT22;57257;48.408;-4.498;2023-08-24T10:43:09;24.76;59.78
69944;DHT22;57257;48.408;-4.498;2023-08-24T10:45:59;24.65;59.73
69944;DHT22;57257;48.408;-4.498;2023-08-24T10:49:18;24.60;59.95
69944;DHT22;57257;48.408;-4.498;2023-08-24T10:56:18;24.59;58.81
69944;DHT22;57257;48.408;-4.498;2023-08-24T10:58:45;24.46;59.27
69944;DHT22;57257;48.408;-4.498;2023-08-24T11:01:17;24.40;59.64
69944;DHT22;57257;48.408;-4.498;2023-08-24T11:03:55;24.36;59.63
69944;DHT22;57257;48.408;-4.498;2023-08-24T11:06:22;24.35;59.71
69944;DHT22;57257;48.408;-4.498;2023-08-24T11:08:48;24.33;59.74
69944;DHT22;57257;48.408;-4.498;2023-08-24T11:11:20;24.30;59.00
69944;DHT22;57257;48.408;-4.498;2023-08-24T11:14:14;24.18;58.81
69944;DHT22;57257;48.408;-4.498;2023-08-24T11:16:48;24.11;58.95
69944;DHT22;57257;48.408;-4.498;2023-08-24T11:19:15;24.00;58.36
69944;DHT22;57257;48.408;-4.498;2023-08-24T11:21:43;23.92;58.45
69944;DHT22;57257;48.408;-4.498;2023-08-24T11:24:12;23.89;58.48
69944;DHT22;57257;48.408;-4.498;2023-08-24T11:26:43;23.91;58.72
69944;DHT22;57257;48.408;-4.498;2023-08-24T11:29:10;23.94;57.89
69944;DHT22;57257;48.408;-4.498;2023-08-24T11:31:36;23.95;58.01
69944;DHT22;57257;48.408;-4.498;2023-08-24T11:34:02;23.97;57.75
69944;DHT22;57257;48.408;-4.498;2023-08-24T11:36:29;24.04;57.29
69944;DHT22;57257;48.408;-4.498;2023-08-24T11:38:59;24.12;56.44
69944;DHT22;57257;48.408;-4.498;2023-08-24T11:41:25;24.18;55.83
69944;DHT22;57257;48.408;-4.498;2023-08-24T11:43:59;24.36;55.76
69944;DHT22;57257;48.408;-4.498;2023-08-24T11:46:24;24.49;54.77
69944;DHT22;57257;48.408;-4.498;2023-08-24T11:48:50;24.56;54.07
69944;DHT22;57257;48.408;-4.498;2023-08-24T11:51:16;24.60;53.99
69944;DHT22;57257;48.408;-4.498;2023-08-24T11:53:43;24.82;53.99
69944;DHT22;57257;48.408;-4.498;2023-08-24T11:56:10;25.03;52.97
69944;DHT22;57257;48.408;-4.498;2023-08-24T11:58:39;25.20;51.14
69944;DHT22;57257;48.408;-4.498;2023-08-24T12:01:05;25.35;49.33
69944;DHT22;57257;48.408;-4.498;2023-08-24T12:03:31;25.48;48.26
69944;DHT22;57257;48.408;-4.498;2023-08-24T12:06:01;25.61;46.79
69944;DHT22;57257;48.408;-4.498;2023-08-24T12:08:26;25.67;45.22
69944;DHT22;57257;48.408;-4.498;2023-08-24T12:10:52;25.70;45.36
69944;DHT22;57257;48.408;-4.498;2023-08-24T12:13:17;25.74;46.47
69944;DHT22;57257;48.408;-4.498;2023-08-24T12:15:43;25.92;45.69
69944;DHT22;57257;48.408;-4.498;2023-08-24T12:18:11;25.99;44.77
69944;DHT22;57257;48.408;-4.498;2023-08-24T12:20:37;26.04;46.00
69944;DHT22;57257;48.408;-4.498;2023-08-24T12:23:03;26.14;46.40
69944;DHT22;57257;48.408;-4.498;2023-08-24T12:25:29;26.19;47.34
69944;DHT22;57257;48.408;-4.498;2023-08-24T12:28:15;26.31;47.41
69944;DHT22;57257;48.408;-4.498;2023-08-24T12:30:49;26.31;46.39
69944;DHT22;57257;48.408;-4.498;2023-08-24T12:33:24;26.28;47.56
69944;DHT22;57257;48.408;-4.498;2023-08-24T12:35:51;26.22;46.69
69944;DHT22;57257;48.408;-4.498;2023-08-24T12:38:16;26.19;47.33
69944;DHT22;57257;48.408;-4.498;2023-08-24T12:40:42;26.11;47.55
69944;DHT22;57257;48.408;-4.498;2023-08-24T12:43:07;26.11;48.15
69944;DHT22;57257;48.408;-4.498;2023-08-24T12:45:33;26.11;48.66
69944;DHT22;57257;48.408;-4.498;2023-08-24T12:47:58;26.19;48.94
69944;DHT22;57257;48.408;-4.498;2023-08-24T12:50:24;26.26;49.21
69944;DHT22;57257;48.408;-4.498;2023-08-24T12:52:49;26.25;48.80
69944;DHT22;57257;48.408;-4.498;2023-08-24T12:55:20;26.24;48.60
69944;DHT22;57257;48.408;-4.498;2023-08-24T12:57:46;26.32;48.76
69944;DHT22;57257;48.408;-4.498;2023-08-24T13:00:12;26.36;48.57
69944;DHT22;57257;48.408;-4.498;2023-08-24T13:02:37;26.31;48.78
69944;DHT22;57257;48.408;-4.498;2023-08-24T13:05:03;26.25;48.79
69944;DHT22;57257;48.408;-4.498;2023-08-24T13:07:29;26.19;48.37
69944;DHT22;57257;48.408;-4.498;2023-08-24T13:09:54;26.14;48.36
69944;DHT22;57257;48.408;-4.498;2023-08-24T13:12:20;26.06;47.70
69944;DHT22;57257;48.408;-4.498;2023-08-24T13:14:46;25.88;47.59
69944;DHT22;57257;48.408;-4.498;2023-08-24T13:17:12;25.81;48.57
69944;DHT22;57257;48.408;-4.498;2023-08-24T13:19:37;25.75;49.31
69944;DHT22;57257;48.408;-4.498;2023-08-24T13:22:03;25.70;50.29
69944;DHT22;57257;48.408;-4.498;2023-08-24T13:24:28;25.67;50.80
69944;DHT22;57257;48.408;-4.498;2023-08-24T13:26:54;25.64;51.36
69944;DHT22;57257;48.408;-4.498;2023-08-24T13:29:19;25.62;51.70
69944;DHT22;57257;48.408;-4.498;2023-08-24T13:31:45;25.60;51.76
69944;DHT22;57257;48.408;-4.498;2023-08-24T13:34:10;25.50;51.97
69944;DHT22;57257;48.408;-4.498;2023-08-24T13:36:36;25.42;50.95
69944;DHT22;57257;48.408;-4.498;2023-08-24T13:39:01;25.35;51.26
69944;DHT22;57257;48.408;-4.498;2023-08-24T13:41:27;25.28;50.85
69944;DHT22;57257;48.408;-4.498;2023-08-24T13:43:53;25.27;50.99
69944;DHT22;57257;48.408;-4.498;2023-08-24T13:46:18;25.23;51.51
69944;DHT22;57257;48.408;-4.498;2023-08-24T13:48:44;25.21;51.77
69944;DHT22;57257;48.408;-4.498;2023-08-24T13:51:16;25.18;52.02
69944;DHT22;57257;48.408;-4.498;2023-08-24T13:53:42;25.17;52.16
69944;DHT22;57257;48.408;-4.498;2023-08-24T13:56:07;25.11;51.81
69944;DHT22;57257;48.408;-4.498;2023-08-24T13:58:33;25.06;51.73
69944;DHT22;57257;48.408;-4.498;2023-08-24T14:00:58;24.99;51.94
69944;DHT22;57257;48.408;-4.498;2023-08-24T14:03:24;25.08;52.01
69944;DHT22;57257;48.408;-4.498;2023-08-24T14:05:49;25.18;51.82
69944;DHT22;57257;48.408;-4.498;2023-08-24T14:08:19;25.31;51.65
69944;DHT22;57257;48.408;-4.498;2023-08-24T14:10:45;25.37;51.13
69944;DHT22;57257;48.408;-4.498;2023-08-24T14:13:12;25.45;50.81
69944;DHT22;57257;48.408;-4.498;2023-08-24T14:15:38;25.51;50.71
69944;DHT22;57257;48.408;-4.498;2023-08-24T14:18:03;25.58;50.70
69944;DHT22;57257;48.408;-4.498;2023-08-24T14:20:29;25.65;50.46
69944;DHT22;57257;48.408;-4.498;2023-08-24T14:22:54;25.62;50.23
69944;DHT22;57257;48.408;-4.498;2023-08-24T14:25:19;25.57;50.30
69944;DHT22;57257;48.408;-4.498;2023-08-24T14:27:45;25.52;50.32
69944;DHT22;57257;48.408;-4.498;2023-08-24T14:30:11;25.47;50.39
69944;DHT22;57257;48.408;-4.498;2023-08-24T14:32:36;25.41;49.98
69944;DHT22;57257;48.408;-4.498;2023-08-24T14:35:02;25.34;50.16
69944;DHT22;57257;48.408;-4.498;2023-08-24T14:37:29;25.28;50.29
69944;DHT22;57257;48.408;-4.498;2023-08-24T14:39:55;25.17;50.73
69944;DHT22;57257;48.408;-4.498;2023-08-24T14:42:20;25.10;50.59
69944;DHT22;57257;48.408;-4.498;2023-08-24T14:44:46;25.03;50.64
69944;DHT22;57257;48.408;-4.498;2023-08-24T14:47:11;25.00;50.51
69944;DHT22;57257;48.408;-4.498;2023-08-24T14:49:36;25.00;50.42
69944;DHT22;57257;48.408;-4.498;2023-08-24T14:52:02;25.03;50.74
69944;DHT22;57257;48.408;-4.498;2023-08-24T14:54:27;25.14;50.78
69944;DHT22;57257;48.408;-4.498;2023-08-24T14:56:53;25.24;50.15
69944;DHT22;57257;48.408;-4.498;2023-08-24T14:59:18;25.26;50.30
69944;DHT22;57257;48.408;-4.498;2023-08-24T15:01:44;25.26;50.33
69944;DHT22;57257;48.408;-4.498;2023-08-24T15:04:10;25.27;50.32
69944;DHT22;57257;48.408;-4.498;2023-08-24T15:06:35;25.20;50.17
69944;DHT22;57257;48.408;-4.498;2023-08-24T15:09:01;25.14;50.51
69944;DHT22;57257;48.408;-4.498;2023-08-24T15:11:26;25.14;50.69
69944;DHT22;57257;48.408;-4.498;2023-08-24T15:13:52;25.13;50.62
69944;DHT22;57257;48.408;-4.498;2023-08-24T15:16:18;25.11;51.07
69944;DHT22;57257;48.408;-4.498;2023-08-24T15:18:44;25.18;50.99
69944;DHT22;57257;48.408;-4.498;2023-08-24T15:21:10;25.28;51.07
69944;DHT22;57257;48.408;-4.498;2023-08-24T15:23:35;25.35;51.05
69944;DHT22;57257;48.408;-4.498;2023-08-24T15:26:01;25.38;50.80